sensor_id;sensor_type;location;lat;lon;timestamp;P1;durP1;ratioP1;P2;durP2;ratioP2
75230;SDS011;63814;50.118;8.714;2022-11-15T00:02:10;12.87;;;9.93;;
75230;SDS011;63814;50.118;8.714;2022-11-15T00:04:36;15.67;;;9.93;;
75230;SDS011;63814;50.118;8.714;2022-11-15T00:07:03;11.53;;;9.80;;
75230;SDS011;63814;50.118;8.714;2022-11-15T00:09:29;14.13;;;10.50;;
75230;SDS011;63814;50.118;8.714;2022-11-15T00:11:55;13.00;;;9.77;;
75230;SDS011;63814;50.118;8.714;2022-11-15T00:14:23;12.83;;;10.10;;
75230;SDS011;63814;50.118;8.714;2022-11-15T00:16:50;12.57;;;9.83;;
75230;SDS011;63814;50.118;8.714;2022-11-15T00:19:16;11.37;;;8.27;;
75230;SDS011;63814;50.118;8.714;2022-11-15T00:21:43;10.37;;;9.10;;
75230;SDS011;63814;50.118;8.714;2022-11-15T00:24:09;13.07;;;10.50;;
75230;SDS011;63814;50.118;8.714;2022-11-15T00:26:36;11.90;;;8.90;;
75230;SDS011;63814;50.118;8.714;2022-11-15T00:29:02;17.57;;;10.63;;
75230;SDS011;63814;50.118;8.714;2022-11-15T00:31:30;13.40;;;9.50;;
75230;SDS011;63814;50.118;8.714;2022-11-15T00:33:56;13.73;;;9.97;;
75230;SDS011;63814;50.118;8.714;2022-11-15T00:36:23;12.53;;;9.80;;
75230;SDS011;63814;50.118;8.714;2022-11-15T00:38:49;14.63;;;10.57;;
75230;SDS011;63814;50.118;8.714;2022-11-15T00:41:16;15.70;;;10.90;;
75230;SDS011;63814;50.118;8.714;2022-11-15T00:43:42;12.80;;;9.93;;
75230;SDS011;63814;50.118;8.714;2022-11-15T00:46:09;13.50;;;10.27;;
75230;SDS011;63814;50.118;8.714;2022-11-15T00:48:37;13.80;;;10.40;;
75230;SDS011;63814;50.118;8.714;2022-11-15T00:51:03;15.80;;;10.37;;
75230;SDS011;63814;50.118;8.714;2022-11-15T00:53:30;13.57;;;10.50;;
75230;SDS011;63814;50.118;8.714;2022-11-15T00:55:56;11.80;;;10.30;;
75230;SDS011;63814;50.118;8.714;2022-11-15T00:58:23;11.97;;;10.17;;
75230;SDS011;63814;50.118;8.714;2022-11-15T01:00:49;13.43;;;9.93;;
75230;SDS011;63814;50.118;8.714;2022-11-15T01:03:16;12.50;;;9.93;;
75230;SDS011;63814;50.118;8.714;2022-11-15T01:05:44;14.23;;;10.93;;
75230;SDS011;63814;50.118;8.714;2022-11-15T01:08:11;13.57;;;10.07;;
75230;SDS011;63814;50.118;8.714;2022-11-15T01:10:39;12.87;;;10.23;;
75230;SDS011;63814;50.118;8.714;2022-11-15T01:13:05;13.33;;;10.53;;
75230;SDS011;63814;50.118;8.714;2022-11-15T01:15:32;12.27;;;9.40;;
75230;SDS011;63814;50.118;8.714;2022-11-15T01:17:58;13.40;;;10.20;;
75230;SDS011;63814;50.118;8.714;2022-11-15T01:20:24;13.27;;;10.80;;
75230;SDS011;63814;50.118;8.714;2022-11-15T01:22:52;14.93;;;10.67;;
75230;SDS011;63814;50.118;8.714;2022-11-15T01:25:19;15.20;;;10.30;;
75230;SDS011;63814;50.118;8.714;2022-11-15T01:27:45;13.80;;;9.30;;
75230;SDS011;63814;50.118;8.714;2022-11-15T01:30:12;11.43;;;9.13;;
75230;SDS011;63814;50.118;8.714;2022-11-15T01:32:38;12.13;;;9.40;;
75230;SDS011;63814;50.118;8.714;2022-11-15T01:35:05;14.23;;;10.13;;
75230;SDS011;63814;50.118;8.714;2022-11-15T01:37:32;13.33;;;10.13;;
75230;SDS011;63814;50.118;8.714;2022-11-15T01:39:59;12.23;;;8.57;;
75230;SDS011;63814;50.118;8.714;2022-11-15T01:42:26;14.40;;;9.17;;
75230;SDS011;63814;50.118;8.714;2022-11-15T01:44:52;11.17;;;9.10;;
75230;SDS011;63814;50.118;8.714;2022-11-15T01:47:21;11.03;;;9.27;;
75230;SDS011;63814;50.118;8.714;2022-11-15T01:49:52;10.77;;;8.77;;
75230;SDS011;63814;50.118;8.714;2022-11-15T01:52:24;10.47;;;8.27;;
75230;SDS011;63814;50.118;8.714;2022-11-15T01:54:53;10.40;;;9.23;;
75230;SDS011;63814;50.118;8.714;2022-11-15T01:57:27;11.00;;;8.53;;
75230;SDS011;63814;50.118;8.714;2022-11-15T01:59:54;13.63;;;9.43;;
75230;SDS011;63814;50.118;8.714;2022-11-15T02:02:21;11.80;;;8.30;;
75230;SDS011;63814;50.118;8.714;2022-11-15T02:04:47;13.13;;;8.03;;
75230;SDS011;63814;50.118;8.714;2022-11-15T02:07:15;10.40;;;8.23;;
75230;SDS011;63814;50.118;8.714;2022-11-15T02:09:43;11.73;;;7.87;;
75230;SDS011;63814;50.118;8.714;2022-11-15T02:12:10;11.73;;;7.87;;
75230;SDS011;63814;50.118;8.714;2022-11-15T02:14:42;9.27;;;7.67;;
75230;SDS011;63814;50.118;8.714;2022-11-15T02:17:15;10.77;;;7.90;;
75230;SDS011;63814;50.118;8.714;2022-11-15T02:20:00;10.57;;;7.27;;
75230;SDS011;63814;50.118;8.714;2022-11-15T02:22:46;9.43;;;7.57;;
75230;SDS011;63814;50.118;8.714;2022-11-15T02:25:36;10.90;;;7.60;;
75230;SDS011;63814;50.118;8.714;2022-11-15T02:28:11;11.53;;;7.67;;
75230;SDS011;63814;50.118;8.714;2022-11-15T02:30:54;9.10;;;7.23;;
75230;SDS011;63814;50.118;8.714;2022-11-15T02:33:26;11.00;;;7.17;;
75230;SDS011;63814;50.118;8.714;2022-11-15T02:36:02;9.10;;;6.90;;
75230;SDS011;63814;50.118;8.714;2022-11-15T02:38:39;8.33;;;7.23;;
75230;SDS011;63814;50.118;8.714;2022-11-15T02:41:13;10.10;;;6.93;;
75230;SDS011;63814;50.118;8.714;2022-11-15T02:43:44;11.30;;;7.00;;
75230;SDS011;63814;50.118;8.714;2022-11-15T02:46:23;7.83;;;6.90;;
75230;SDS011;63814;50.118;8.714;2022-11-15T02:49:15;7.67;;;6.27;;
75230;SDS011;63814;50.118;8.714;2022-11-15T02:51:43;8.43;;;6.23;;
75230;SDS011;63814;50.118;8.714;2022-11-15T02:54:14;7.43;;;6.43;;
75230;SDS011;63814;50.118;8.714;2022-11-15T02:56:49;9.40;;;6.70;;
75230;SDS011;63814;50.118;8.714;2022-11-15T02:59:23;9.30;;;6.57;;
75230;SDS011;63814;50.118;8.714;2022-11-15T03:02:08;6.80;;;5.90;;
75230;SDS011;63814;50.118;8.714;2022-11-15T03:04:45;7.73;;;6.10;;
75230;SDS011;63814;50.118;8.714;2022-11-15T03:07:19;8.87;;;6.40;;
75230;SDS011;63814;50.118;8.714;2022-11-15T03:09:51;8.10;;;6.13;;
75230;SDS011;63814;50.118;8.714;2022-11-15T03:12:24;8.73;;;6.07;;
75230;SDS011;63814;50.118;8.714;2022-11-15T03:14:56;7.17;;;5.97;;
75230;SDS011;63814;50.118;8.714;2022-11-15T03:17:28;9.73;;;6.17;;
75230;SDS011;63814;50.118;8.714;2022-11-15T03:19:59;7.27;;;6.40;;
75230;SDS011;63814;50.118;8.714;2022-11-15T03:22:30;7.27;;;5.90;;
75230;SDS011;63814;50.118;8.714;2022-11-15T03:25:02;7.17;;;5.93;;
75230;SDS011;63814;50.118;8.714;2022-11-15T03:27:33;8.33;;;6.03;;
75230;SDS011;63814;50.118;8.714;2022-11-15T03:30:05;7.20;;;6.40;;
75230;SDS011;63814;50.118;8.714;2022-11-15T03:32:36;9.83;;;5.77;;
75230;SDS011;63814;50.118;8.714;2022-11-15T03:35:06;9.33;;;5.67;;
75230;SDS011;63814;50.118;8.714;2022-11-15T03:37:36;6.53;;;5.40;;
75230;SDS011;63814;50.118;8.714;2022-11-15T03:40:07;6.33;;;5.50;;
75230;SDS011;63814;50.118;8.714;2022-11-15T03:42:35;6.80;;;5.90;;
75230;SDS011;63814;50.118;8.714;2022-11-15T03:45:11;10.17;;;6.23;;
75230;SDS011;63814;50.118;8.714;2022-11-15T03:47:42;7.83;;;6.17;;
75230;SDS011;63814;50.118;8.714;2022-11-15T03:50:12;8.43;;;6.10;;
75230;SDS011;63814;50.118;8.714;2022-11-15T03:52:41;11.27;;;6.50;;
75230;SDS011;63814;50.118;8.714;2022-11-15T03:55:12;9.53;;;6.40;;
75230;SDS011;63814;50.118;8.714;2022-11-15T03:57:41;7.53;;;6.03;;
75230;SDS011;63814;50.118;8.714;2022-11-15T04:00:08;9.43;;;6.03;;
75230;SDS011;63814;50.118;8.714;2022-11-15T04:02:36;9.10;;;6.40;;
75230;SDS011;63814;50.118;8.714;2022-11-15T04:05:04;7.90;;;5.87;;
75230;SDS011;63814;50.118;8.714;2022-11-15T04:07:30;10.00;;;7.13;;
75230;SDS011;63814;50.118;8.714;2022-11-15T04:09:57;8.33;;;6.80;;
75230;SDS011;63814;50.118;8.714;2022-11-15T04:12:30;9.13;;;6.87;;
75230;SDS011;63814;50.118;8.714;2022-11-15T04:14:58;8.30;;;6.60;;
75230;SDS011;63814;50.118;8.714;2022-11-15T04:17:39;8.80;;;6.40;;
75230;SDS011;63814;50.118;8.714;2022-11-15T04:20:09;7.83;;;6.70;;
75230;SDS011;63814;50.118;8.714;2022-11-15T04:22:56;8.60;;;6.13;;
75230;SDS011;63814;50.118;8.714;2022-11-15T04:25:41;7.33;;;6.50;;
75230;SDS011;63814;50.118;8.714;2022-11-15T04:28:08;9.93;;;6.97;;
75230;SDS011;63814;50.118;8.714;2022-11-15T04:30:35;10.33;;;6.93;;
75230;SDS011;63814;50.118;8.714;2022-11-15T04:33:01;9.53;;;6.83;;
75230;SDS011;63814;50.118;8.714;2022-11-15T04:35:29;8.93;;;7.37;;
75230;SDS011;63814;50.118;8.714;2022-11-15T04:37:56;9.50;;;6.80;;
75230;SDS011;63814;50.118;8.714;2022-11-15T04:40:22;12.23;;;7.50;;
75230;SDS011;63814;50.118;8.714;2022-11-15T04:42:48;10.23;;;7.30;;
75230;SDS011;63814;50.118;8.714;2022-11-15T04:45:15;7.63;;;6.67;;
75230;SDS011;63814;50.118;8.714;2022-11-15T04:47:42;10.53;;;6.40;;
75230;SDS011;63814;50.118;8.714;2022-11-15T04:50:10;8.07;;;6.07;;
75230;SDS011;63814;50.118;8.714;2022-11-15T04:52:39;7.13;;;6.40;;
75230;SDS011;63814;50.118;8.714;2022-11-15T04:55:07;6.93;;;6.10;;
75230;SDS011;63814;50.118;8.714;2022-11-15T04:57:34;7.63;;;6.57;;
75230;SDS011;63814;50.118;8.714;2022-11-15T05:00:00;9.40;;;6.70;;
75230;SDS011;63814;50.118;8.714;2022-11-15T05:02:28;9.93;;;6.17;;
75230;SDS011;63814;50.118;8.714;2022-11-15T05:05:15;7.57;;;6.13;;
75230;SDS011;63814;50.118;8.714;2022-11-15T05:07:42;8.33;;;6.43;;
75230;SDS011;63814;50.118;8.714;2022-11-15T05:10:08;9.47;;;6.20;;
75230;SDS011;63814;50.118;8.714;2022-11-15T05:12:35;9.53;;;7.00;;
75230;SDS011;63814;50.118;8.714;2022-11-15T05:15:02;9.60;;;7.00;;
75230;SDS011;63814;50.118;8.714;2022-11-15T05:17:29;11.77;;;7.10;;
75230;SDS011;63814;50.118;8.714;2022-11-15T05:19:55;9.07;;;6.80;;
75230;SDS011;63814;50.118;8.714;2022-11-15T05:22:22;9.90;;;6.60;;
75230;SDS011;63814;50.118;8.714;2022-11-15T05:24:50;9.83;;;7.20;;
75230;SDS011;63814;50.118;8.714;2022-11-15T05:27:16;11.53;;;7.20;;
75230;SDS011;63814;50.118;8.714;2022-11-15T05:29:43;8.73;;;6.50;;
75230;SDS011;63814;50.118;8.714;2022-11-15T05:32:09;10.47;;;7.13;;
75230;SDS011;63814;50.118;8.714;2022-11-15T05:34:38;9.27;;;6.60;;
75230;SDS011;63814;50.118;8.714;2022-11-15T05:37:04;11.57;;;7.13;;
75230;SDS011;63814;50.118;8.714;2022-11-15T05:39:31;10.00;;;7.30;;
75230;SDS011;63814;50.118;8.714;2022-11-15T05:42:00;9.77;;;6.70;;
75230;SDS011;63814;50.118;8.714;2022-11-15T05:44:30;9.07;;;6.23;;
75230;SDS011;63814;50.118;8.714;2022-11-15T05:46:57;11.67;;;7.60;;
75230;SDS011;63814;50.118;8.714;2022-11-15T05:49:25;12.00;;;7.67;;
75230;SDS011;63814;50.118;8.714;2022-11-15T05:51:55;14.00;;;7.70;;
75230;SDS011;63814;50.118;8.714;2022-11-15T05:54:23;8.83;;;7.30;;
75230;SDS011;63814;50.118;8.714;2022-11-15T05:56:51;10.20;;;7.10;;
75230;SDS011;63814;50.118;8.714;2022-11-15T05:59:19;15.43;;;8.67;;
75230;SDS011;63814;50.118;8.714;2022-11-15T06:01:46;12.77;;;8.30;;
75230;SDS011;63814;50.118;8.714;2022-11-15T06:04:13;16.27;;;8.23;;
75230;SDS011;63814;50.118;8.714;2022-11-15T06:06:39;12.17;;;7.90;;
75230;SDS011;63814;50.118;8.714;2022-11-15T06:09:05;14.90;;;8.10;;
75230;SDS011;63814;50.118;8.714;2022-11-15T06:11:32;12.03;;;7.93;;
75230;SDS011;63814;50.118;8.714;2022-11-15T06:13:58;12.87;;;8.10;;
75230;SDS011;63814;50.118;8.714;2022-11-15T06:16:26;15.03;;;8.03;;
75230;SDS011;63814;50.118;8.714;2022-11-15T06:18:53;10.93;;;7.53;;
75230;SDS011;63814;50.118;8.714;2022-11-15T06:21:19;13.77;;;7.80;;
75230;SDS011;63814;50.118;8.714;2022-11-15T06:23:46;12.53;;;7.50;;
75230;SDS011;63814;50.118;8.714;2022-11-15T06:26:12;11.77;;;7.50;;
75230;SDS011;63814;50.118;8.714;2022-11-15T06:28:39;14.10;;;8.20;;
75230;SDS011;63814;50.118;8.714;2022-11-15T06:31:06;12.77;;;7.20;;
75230;SDS011;63814;50.118;8.714;2022-11-15T06:33:35;10.93;;;7.77;;
75230;SDS011;63814;50.118;8.714;2022-11-15T06:36:01;9.60;;;7.20;;
75230;SDS011;63814;50.118;8.714;2022-11-15T06:38:28;11.63;;;7.50;;
75230;SDS011;63814;50.118;8.714;2022-11-15T06:40:54;9.33;;;7.30;;
75230;SDS011;63814;50.118;8.714;2022-11-15T06:43:21;11.80;;;7.50;;
75230;SDS011;63814;50.118;8.714;2022-11-15T06:45:47;13.27;;;7.70;;
75230;SDS011;63814;50.118;8.714;2022-11-15T06:48:14;11.83;;;7.73;;
75230;SDS011;63814;50.118;8.714;2022-11-15T06:50:42;13.03;;;8.80;;
75230;SDS011;63814;50.118;8.714;2022-11-15T06:53:08;11.83;;;8.67;;
75230;SDS011;63814;50.118;8.714;2022-11-15T06:55:35;10.13;;;8.50;;
75230;SDS011;63814;50.118;8.714;2022-11-15T06:58:01;13.97;;;7.77;;
75230;SDS011;63814;50.118;8.714;2022-11-15T07:00:28;9.73;;;7.83;;
75230;SDS011;63814;50.118;8.714;2022-11-15T07:02:54;11.17;;;8.13;;
75230;SDS011;63814;50.118;8.714;2022-11-15T07:05:20;12.47;;;8.00;;
75230;SDS011;63814;50.118;8.714;2022-11-15T07:07:54;10.23;;;7.73;;
75230;SDS011;63814;50.118;8.714;2022-11-15T07:10:22;12.60;;;7.60;;
75230;SDS011;63814;50.118;8.714;2022-11-15T07:12:50;15.83;;;8.00;;
75230;SDS011;63814;50.118;8.714;2022-11-15T07:15:17;13.13;;;7.70;;
75230;SDS011;63814;50.118;8.714;2022-11-15T07:17:45;14.23;;;7.70;;
75230;SDS011;63814;50.118;8.714;2022-11-15T07:20:12;13.53;;;8.20;;
75230;SDS011;63814;50.118;8.714;2022-11-15T07:22:39;10.87;;;7.17;;
75230;SDS011;63814;50.118;8.714;2022-11-15T07:25:07;11.00;;;7.70;;
75230;SDS011;63814;50.118;8.714;2022-11-15T07:27:35;12.20;;;7.27;;
75230;SDS011;63814;50.118;8.714;2022-11-15T07:30:01;12.97;;;7.47;;
75230;SDS011;63814;50.118;8.714;2022-11-15T07:32:28;14.03;;;8.23;;
75230;SDS011;63814;50.118;8.714;2022-11-15T07:34:55;10.57;;;7.30;;
75230;SDS011;63814;50.118;8.714;2022-11-15T07:37:21;14.10;;;7.93;;
75230;SDS011;63814;50.118;8.714;2022-11-15T07:39:48;11.87;;;8.10;;
75230;SDS011;63814;50.118;8.714;2022-11-15T07:42:16;14.47;;;7.90;;
75230;SDS011;63814;50.118;8.714;2022-11-15T07:45:00;11.93;;;8.40;;
75230;SDS011;63814;50.118;8.714;2022-11-15T07:47:28;15.57;;;8.83;;
75230;SDS011;63814;50.118;8.714;2022-11-15T07:49:54;11.10;;;7.27;;
75230;SDS011;63814;50.118;8.714;2022-11-15T07:52:21;12.37;;;7.67;;
75230;SDS011;63814;50.118;8.714;2022-11-15T07:54:47;10.73;;;7.37;;
75230;SDS011;63814;50.118;8.714;2022-11-15T07:57:15;12.50;;;7.40;;
75230;SDS011;63814;50.118;8.714;2022-11-15T07:59:42;16.97;;;8.37;;
75230;SDS011;63814;50.118;8.714;2022-11-15T08:02:08;9.50;;;7.30;;
75230;SDS011;63814;50.118;8.714;2022-11-15T08:04:35;16.00;;;8.23;;
75230;SDS011;63814;50.118;8.714;2022-11-15T08:07:02;12.00;;;6.97;;
75230;SDS011;63814;50.118;8.714;2022-11-15T08:09:28;12.13;;;7.50;;
75230;SDS011;63814;50.118;8.714;2022-11-15T08:11:55;12.83;;;7.60;;
75230;SDS011;63814;50.118;8.714;2022-11-15T08:14:22;15.40;;;7.90;;
75230;SDS011;63814;50.118;8.714;2022-11-15T08:16:49;12.00;;;8.13;;
75230;SDS011;63814;50.118;8.714;2022-11-15T08:19:15;10.97;;;7.27;;
75230;SDS011;63814;50.118;8.714;2022-11-15T08:21:42;12.60;;;7.40;;
75230;SDS011;63814;50.118;8.714;2022-11-15T08:24:09;11.47;;;6.97;;
75230;SDS011;63814;50.118;8.714;2022-11-15T08:26:36;11.33;;;6.83;;
75230;SDS011;63814;50.118;8.714;2022-11-15T08:29:03;13.53;;;7.23;;
75230;SDS011;63814;50.118;8.714;2022-11-15T08:31:31;17.30;;;7.97;;
75230;SDS011;63814;50.118;8.714;2022-11-15T08:33:57;18.83;;;8.83;;
75230;SDS011;63814;50.118;8.714;2022-11-15T08:36:23;11.27;;;6.57;;
75230;SDS011;63814;50.118;8.714;2022-11-15T08:38:50;8.47;;;5.90;;
75230;SDS011;63814;50.118;8.714;2022-11-15T08:41:18;10.13;;;6.17;;
75230;SDS011;63814;50.118;8.714;2022-11-15T08:43:50;8.67;;;5.50;;
75230;SDS011;63814;50.118;8.714;2022-11-15T08:46:17;7.90;;;5.63;;
75230;SDS011;63814;50.118;8.714;2022-11-15T08:48:45;9.47;;;5.87;;
75230;SDS011;63814;50.118;8.714;2022-11-15T08:51:11;10.03;;;5.73;;
75230;SDS011;63814;50.118;8.714;2022-11-15T08:53:38;11.17;;;6.27;;
75230;SDS011;63814;50.118;8.714;2022-11-15T08:56:06;10.23;;;6.30;;
75230;SDS011;63814;50.118;8.714;2022-11-15T08:58:33;9.47;;;5.40;;
75230;SDS011;63814;50.118;8.714;2022-11-15T09:01:00;12.30;;;6.20;;
75230;SDS011;63814;50.118;8.714;2022-11-15T09:03:26;8.20;;;6.07;;
75230;SDS011;63814;50.118;8.714;2022-11-15T09:05:55;9.60;;;5.70;;
75230;SDS011;63814;50.118;8.714;2022-11-15T09:08:22;11.80;;;6.37;;
75230;SDS011;63814;50.118;8.714;2022-11-15T09:10:49;12.77;;;6.20;;
75230;SDS011;63814;50.118;8.714;2022-11-15T09:13:16;9.47;;;6.13;;
75230;SDS011;63814;50.118;8.714;2022-11-15T09:15:43;11.17;;;5.87;;
75230;SDS011;63814;50.118;8.714;2022-11-15T09:18:09;9.80;;;5.50;;
75230;SDS011;63814;50.118;8.714;2022-11-15T09:20:36;18.40;;;5.77;;
75230;SDS011;63814;50.118;8.714;2022-11-15T09:23:04;10.17;;;5.30;;
75230;SDS011;63814;50.118;8.714;2022-11-15T09:25:31;11.73;;;4.87;;
75230;SDS011;63814;50.118;8.714;2022-11-15T09:27:58;10.87;;;5.40;;
75230;SDS011;63814;50.118;8.714;2022-11-15T09:30:25;7.70;;;5.10;;
75230;SDS011;63814;50.118;8.714;2022-11-15T09:32:51;9.97;;;5.50;;
75230;SDS011;63814;50.118;8.714;2022-11-15T09:35:18;10.00;;;5.70;;
75230;SDS011;63814;50.118;8.714;2022-11-15T09:37:44;8.83;;;5.20;;
75230;SDS011;63814;50.118;8.714;2022-11-15T09:40:12;10.27;;;5.33;;
75230;SDS011;63814;50.118;8.714;2022-11-15T09:43:00;8.10;;;4.80;;
75230;SDS011;63814;50.118;8.714;2022-11-15T09:45:37;11.47;;;5.40;;
75230;SDS011;63814;50.118;8.714;2022-11-15T09:48:30;8.97;;;5.63;;
75230;SDS011;63814;50.118;8.714;2022-11-15T09:51:26;8.93;;;6.30;;
75230;SDS011;63814;50.118;8.714;2022-11-15T09:53:58;8.27;;;5.50;;
75230;SDS011;63814;50.118;8.714;2022-11-15T09:56:32;8.00;;;5.50;;
75230;SDS011;63814;50.118;8.714;2022-11-15T09:59:06;10.00;;;5.97;;
75230;SDS011;63814;50.118;8.714;2022-11-15T10:01:55;9.00;;;5.23;;
75230;SDS011;63814;50.118;8.714;2022-11-15T10:04:26;10.93;;;6.00;;
75230;SDS011;63814;50.118;8.714;2022-11-15T10:06:55;10.23;;;5.67;;
75230;SDS011;63814;50.118;8.714;2022-11-15T10:09:29;10.30;;;5.93;;
75230;SDS011;63814;50.118;8.714;2022-11-15T10:12:02;7.40;;;5.43;;
75230;SDS011;63814;50.118;8.714;2022-11-15T10:14:29;9.40;;;5.60;;
75230;SDS011;63814;50.118;8.714;2022-11-15T10:17:09;8.30;;;5.13;;
75230;SDS011;63814;50.118;8.714;2022-11-15T10:19:50;11.43;;;6.10;;
75230;SDS011;63814;50.118;8.714;2022-11-15T10:22:25;10.97;;;6.00;;
75230;SDS011;63814;50.118;8.714;2022-11-15T10:24:59;9.30;;;5.77;;
75230;SDS011;63814;50.118;8.714;2022-11-15T10:27:44;7.77;;;5.53;;
75230;SDS011;63814;50.118;8.714;2022-11-15T10:30:16;14.17;;;5.73;;
75230;SDS011;63814;50.118;8.714;2022-11-15T10:32:45;10.20;;;5.40;;
75230;SDS011;63814;50.118;8.714;2022-11-15T10:35:17;5.63;;;5.00;;
75230;SDS011;63814;50.118;8.714;2022-11-15T10:37:48;7.73;;;5.20;;
75230;SDS011;63814;50.118;8.714;2022-11-15T10:40:16;13.53;;;5.47;;
75230;SDS011;63814;50.118;8.714;2022-11-15T10:42:47;10.00;;;5.97;;
75230;SDS011;63814;50.118;8.714;2022-11-15T10:45:24;6.97;;;5.03;;
75230;SDS011;63814;50.118;8.714;2022-11-15T10:47:53;7.77;;;5.00;;
75230;SDS011;63814;50.118;8.714;2022-11-15T10:50:28;9.57;;;5.33;;
75230;SDS011;63814;50.118;8.714;2022-11-15T10:52:55;8.23;;;5.37;;
75230;SDS011;63814;50.118;8.714;2022-11-15T10:55:24;13.37;;;5.20;;
75230;SDS011;63814;50.118;8.714;2022-11-15T10:57:55;8.10;;;4.97;;
75230;SDS011;63814;50.118;8.714;2022-11-15T11:00:29;6.80;;;5.20;;
75230;SDS011;63814;50.118;8.714;2022-11-15T11:02:59;7.00;;;4.87;;
75230;SDS011;63814;50.118;8.714;2022-11-15T11:05:28;5.60;;;4.60;;
75230;SDS011;63814;50.118;8.714;2022-11-15T11:07:57;6.67;;;4.70;;
75230;SDS011;63814;50.118;8.714;2022-11-15T11:10:26;6.10;;;4.93;;
75230;SDS011;63814;50.118;8.714;2022-11-15T11:12:55;8.93;;;5.77;;
75230;SDS011;63814;50.118;8.714;2022-11-15T11:15:22;7.67;;;4.93;;
75230;SDS011;63814;50.118;8.714;2022-11-15T11:17:57;7.77;;;5.17;;
75230;SDS011;63814;50.118;8.714;2022-11-15T11:20:30;7.03;;;5.20;;
75230;SDS011;63814;50.118;8.714;2022-11-15T11:23:03;6.70;;;5.00;;
75230;SDS011;63814;50.118;8.714;2022-11-15T11:25:42;8.63;;;4.67;;
75230;SDS011;63814;50.118;8.714;2022-11-15T11:28:25;6.47;;;4.60;;
75230;SDS011;63814;50.118;8.714;2022-11-15T11:31:07;6.93;;;4.87;;
75230;SDS011;63814;50.118;8.714;2022-11-15T11:33:44;11.20;;;5.10;;
75230;SDS011;63814;50.118;8.714;2022-11-15T11:36:19;9.20;;;5.10;;
75230;SDS011;63814;50.118;8.714;2022-11-15T11:39:09;7.53;;;4.83;;
75230;SDS011;63814;50.118;8.714;2022-11-15T11:41:50;5.80;;;4.33;;
75230;SDS011;63814;50.118;8.714;2022-11-15T11:44:27;7.33;;;4.77;;
75230;SDS011;63814;50.118;8.714;2022-11-15T11:46:59;6.83;;;4.17;;
75230;SDS011;63814;50.118;8.714;2022-11-15T11:49:29;7.33;;;4.50;;
75230;SDS011;63814;50.118;8.714;2022-11-15T11:52:03;7.50;;;4.60;;
75230;SDS011;63814;50.118;8.714;2022-11-15T11:54:39;7.27;;;4.43;;
75230;SDS011;63814;50.118;8.714;2022-11-15T11:57:13;6.27;;;4.30;;
75230;SDS011;63814;50.118;8.714;2022-11-15T11:59:50;6.67;;;4.47;;
75230;SDS011;63814;50.118;8.714;2022-11-15T12:02:25;6.13;;;4.17;;
75230;SDS011;63814;50.118;8.714;2022-11-15T12:04:57;5.33;;;4.07;;
75230;SDS011;63814;50.118;8.714;2022-11-15T12:07:30;6.47;;;4.53;;
75230;SDS011;63814;50.118;8.714;2022-11-15T12:10:01;6.43;;;5.10;;
75230;SDS011;63814;50.118;8.714;2022-11-15T12:12:38;7.00;;;4.93;;
75230;SDS011;63814;50.118;8.714;2022-11-15T12:15:12;6.53;;;4.50;;
75230;SDS011;63814;50.118;8.714;2022-11-15T12:17:43;5.67;;;4.20;;
75230;SDS011;63814;50.118;8.714;2022-11-15T12:20:15;6.87;;;4.40;;
75230;SDS011;63814;50.118;8.714;2022-11-15T12:22:44;6.80;;;4.67;;
75230;SDS011;63814;50.118;8.714;2022-11-15T12:25:21;5.57;;;4.20;;
75230;SDS011;63814;50.118;8.714;2022-11-15T12:27:53;7.67;;;3.93;;
75230;SDS011;63814;50.118;8.714;2022-11-15T12:30:24;5.20;;;3.73;;
75230;SDS011;63814;50.118;8.714;2022-11-15T12:32:54;5.90;;;3.60;;
75230;SDS011;63814;50.118;8.714;2022-11-15T12:35:24;7.70;;;3.27;;
75230;SDS011;63814;50.118;8.714;2022-11-15T12:37:55;5.77;;;3.63;;
75230;SDS011;63814;50.118;8.714;2022-11-15T12:40:28;6.87;;;3.70;;
75230;SDS011;63814;50.118;8.714;2022-11-15T12:42:58;4.50;;;3.37;;
75230;SDS011;63814;50.118;8.714;2022-11-15T12:45:29;7.23;;;3.70;;
75230;SDS011;63814;50.118;8.714;2022-11-15T12:48:21;7.00;;;3.53;;
75230;SDS011;63814;50.118;8.714;2022-11-15T12:51:22;5.67;;;3.70;;
75230;SDS011;63814;50.118;8.714;2022-11-15T12:57:27;4.50;;;3.37;;
75230;SDS011;63814;50.118;8.714;2022-11-15T12:59:57;6.73;;;3.77;;
75230;SDS011;63814;50.118;8.714;2022-11-15T13:02:27;4.30;;;3.70;;
75230;SDS011;63814;50.118;8.714;2022-11-15T13:05:19;5.10;;;3.40;;
75230;SDS011;63814;50.118;8.714;2022-11-15T13:08:07;5.87;;;3.57;;
75230;SDS011;63814;50.118;8.714;2022-11-15T13:10:34;5.23;;;3.63;;
75230;SDS011;63814;50.118;8.714;2022-11-15T13:13:01;7.00;;;3.57;;
75230;SDS011;63814;50.118;8.714;2022-11-15T13:15:36;5.67;;;3.27;;
75230;SDS011;63814;50.118;8.714;2022-11-15T13:18:30;5.97;;;3.60;;
75230;SDS011;63814;50.118;8.714;2022-11-15T13:21:02;6.57;;;3.70;;
75230;SDS011;63814;50.118;8.714;2022-11-15T13:23:54;6.57;;;3.70;;
75230;SDS011;63814;50.118;8.714;2022-11-15T13:26:21;3.77;;;3.10;;
75230;SDS011;63814;50.118;8.714;2022-11-15T13:28:49;8.03;;;3.50;;
75230;SDS011;63814;50.118;8.714;2022-11-15T13:31:24;5.20;;;3.50;;
75230;SDS011;63814;50.118;8.714;2022-11-15T13:33:55;7.77;;;3.47;;
75230;SDS011;63814;50.118;8.714;2022-11-15T13:36:25;4.30;;;3.20;;
75230;SDS011;63814;50.118;8.714;2022-11-15T13:38:55;4.97;;;2.90;;
75230;SDS011;63814;50.118;8.714;2022-11-15T13:41:24;3.00;;;2.70;;
75230;SDS011;63814;50.118;8.714;2022-11-15T13:43:52;3.77;;;2.67;;
75230;SDS011;63814;50.118;8.714;2022-11-15T13:46:20;6.93;;;2.80;;
75230;SDS011;63814;50.118;8.714;2022-11-15T13:48:51;3.93;;;2.60;;
75230;SDS011;63814;50.118;8.714;2022-11-15T13:51:20;3.50;;;2.37;;
75230;SDS011;63814;50.118;8.714;2022-11-15T13:53:52;3.40;;;2.37;;
75230;SDS011;63814;50.118;8.714;2022-11-15T13:56:24;3.80;;;2.43;;
75230;SDS011;63814;50.118;8.714;2022-11-15T13:58:52;3.93;;;2.43;;
75230;SDS011;63814;50.118;8.714;2022-11-15T14:01:20;2.73;;;2.30;;
75230;SDS011;63814;50.118;8.714;2022-11-15T14:03:49;5.40;;;2.90;;
75230;SDS011;63814;50.118;8.714;2022-11-15T14:06:19;5.07;;;2.70;;
75230;SDS011;63814;50.118;8.714;2022-11-15T14:09:00;5.47;;;2.97;;
75230;SDS011;63814;50.118;8.714;2022-11-15T14:11:30;5.47;;;2.63;;
75230;SDS011;63814;50.118;8.714;2022-11-15T14:14:13;10.57;;;3.00;;
75230;SDS011;63814;50.118;8.714;2022-11-15T14:16:41;6.27;;;2.60;;
75230;SDS011;63814;50.118;8.714;2022-11-15T14:19:10;4.47;;;2.60;;
75230;SDS011;63814;50.118;8.714;2022-11-15T14:21:37;6.83;;;3.20;;
75230;SDS011;63814;50.118;8.714;2022-11-15T14:24:35;5.53;;;2.63;;
75230;SDS011;63814;50.118;8.714;2022-11-15T14:27:15;3.57;;;1.97;;
75230;SDS011;63814;50.118;8.714;2022-11-15T14:29:51;3.50;;;2.33;;
75230;SDS011;63814;50.118;8.714;2022-11-15T14:32:19;3.17;;;2.20;;
75230;SDS011;63814;50.118;8.714;2022-11-15T14:34:47;3.63;;;2.23;;
75230;SDS011;63814;50.118;8.714;2022-11-15T14:37:18;2.87;;;2.20;;
75230;SDS011;63814;50.118;8.714;2022-11-15T14:39:49;2.93;;;1.93;;
75230;SDS011;63814;50.118;8.714;2022-11-15T14:42:17;4.73;;;2.10;;
75230;SDS011;63814;50.118;8.714;2022-11-15T14:44:43;3.43;;;2.10;;
75230;SDS011;63814;50.118;8.714;2022-11-15T14:47:10;5.63;;;2.43;;
75230;SDS011;63814;50.118;8.714;2022-11-15T14:49:38;3.47;;;2.10;;
75230;SDS011;63814;50.118;8.714;2022-11-15T14:52:07;4.17;;;2.57;;
75230;SDS011;63814;50.118;8.714;2022-11-15T14:54:46;5.67;;;2.40;;
75230;SDS011;63814;50.118;8.714;2022-11-15T14:57:14;3.73;;;2.47;;
75230;SDS011;63814;50.118;8.714;2022-11-15T14:59:41;6.20;;;2.47;;
75230;SDS011;63814;50.118;8.714;2022-11-15T15:02:08;4.23;;;2.47;;
75230;SDS011;63814;50.118;8.714;2022-11-15T15:04:40;4.13;;;2.60;;